sensor_id;sensor_type;location;lat;lon;timestamp;temperature;humidity
24152;DHT22;12311;50.866;4.332;2024-02-28T00:00:01;5.20;99.90
24152;DHT22;12311;50.866;4.332;2024-02-28T00:02:27;5.10;99.90
24152;DHT22;12311;50.866;4.332;2024-02-28T00:04:53;5.10;99.90
24152;DHT22;12311;50.866;4.332;2024-02-28T00:07:19;5.10;99.90
24152;DHT22;12311;50.866;4.332;2024-02-28T00:09:44;5.00;99.90
24152;DHT22;12311;50.866;4.332;2024-02-28T00:12:10;5.00;99.90
24152;DHT22;12311;50.866;4.332;2024-02-28T00:14:36;5.00;99.90
24152;DHT22;12311;50.866;4.332;2024-02-28T00:17:01;4.90;99.90
24152;DHT22;12311;50.866;4.332;2024-02-28T00:19:27;5.00;99.90
24152;DHT22;12311;50.866;4.332;2024-02-28T00:21:53;5.00;99.90
24152;DHT22;12311;50.866;4.332;2024-02-28T00:24:18;4.90;99.90
24152;DHT22;12311;50.866;4.332;2024-02-28T00:26:44;4.90;99.90
24152;DHT22;12311;50.866;4.332;2024-02-28T00:29:10;4.90;99.90
24152;DHT22;12311;50.866;4.332;2024-02-28T00:31:36;4.90;99.90
24152;DHT22;12311;50.866;4.332;2024-02-28T00:34:01;4.90;99.90
24152;DHT22;12311;50.866;4.332;2024-02-28T00:36:27;4.90;99.90
24152;DHT22;12311;50.866;4.332;2024-02-28T00:38:53;4.90;99.90
24152;DHT22;12311;50.866;4.332;2024-02-28T00:41:18;4.80;99.90
24152;DHT22;12311;50.866;4.332;2024-02-28T00:43:44;4.70;99.90
24152;DHT22;12311;50.866;4.332;2024-02-28T00:46:10;4.70;99.90
24152;DHT22;12311;50.866;4.332;2024-02-28T00:48:40;4.70;99.90
24152;DHT22;12311;50.866;4.332;2024-02-28T00:51:06;4.70;99.90
24152;DHT22;12311;50.866;4.332;2024-02-28T00:53:33;4.70;99.90
24152;DHT22;12311;50.866;4.332;2024-02-28T00:55:59;4.60;99.90
24152;DHT22;12311;50.866;4.332;2024-02-28T00:58:25;4.60;99.90
24152;DHT22;12311;50.866;4.332;2024-02-28T01:00:53;4.50;99.90
24152;DHT22;12311;50.866;4.332;2024-02-28T01:03:19;4.50;99.90
24152;DHT22;12311;50.866;4.332;2024-02-28T01:05:44;4.50;99.90
24152;DHT22;12311;50.866;4.332;2024-02-28T01:08:10;4.50;99.90
24152;DHT22;12311;50.866;4.332;2024-02-28T01:10:35;4.50;99.90
24152;DHT22;12311;50.866;4.332;2024-02-28T01:13:02;4.60;99.90
24152;DHT22;12311;50.866;4.332;2024-02-28T01:15:28;4.50;99.90
24152;DHT22;12311;50.866;4.332;2024-02-28T01:17:53;4.40;99.90
24152;DHT22;12311;50.866;4.332;2024-02-28T01:20:19;4.40;99.90
24152;DHT22;12311;50.866;4.332;2024-02-28T01:22:45;4.40;99.90
24152;DHT22;12311;50.866;4.332;2024-02-28T01:25:10;4.30;99.90
24152;DHT22;12311;50.866;4.332;2024-02-28T01:27:36;4.30;99.90
24152;DHT22;12311;50.866;4.332;2024-02-28T01:30:02;4.30;99.90
24152;DHT22;12311;50.866;4.332;2024-02-28T01:32:29;4.20;99.90
24152;DHT22;12311;50.866;4.332;2024-02-28T01:34:55;4.20;99.90
24152;DHT22;12311;50.866;4.332;2024-02-28T01:37:21;4.20;99.90
24152;DHT22;12311;50.866;4.332;2024-02-28T01:39:46;4.20;99.90
24152;DHT22;12311;50.866;4.332;2024-02-28T01:42:14;4.30;99.90
24152;DHT22;12311;50.866;4.332;2024-02-28T01:44:48;4.20;99.90
24152;DHT22;12311;50.866;4.332;2024-02-28T01:47:17;4.10;99.90
24152;DHT22;12311;50.866;4.332;2024-02-28T01:49:44;4.10;99.90
24152;DHT22;12311;50.866;4.332;2024-02-28T01:52:12;4.10;99.90
24152;DHT22;12311;50.866;4.332;2024-02-28T01:54:38;4.10;99.90
24152;DHT22;12311;50.866;4.332;2024-02-28T01:57:05;4.10;99.90
24152;DHT22;12311;50.866;4.332;2024-02-28T01:59:32;4.10;99.90
24152;DHT22;12311;50.866;4.332;2024-02-28T02:01:59;4.10;99.90
24152;DHT22;12311;50.866;4.332;2024-02-28T02:04:25;4.00;99.90
24152;DHT22;12311;50.866;4.332;2024-02-28T02:06:51;4.20;99.90
24152;DHT22;12311;50.866;4.332;2024-02-28T02:09:19;4.10;99.90
24152;DHT22;12311;50.866;4.332;2024-02-28T02:11:45;4.00;99.90
24152;DHT22;12311;50.866;4.332;2024-02-28T02:14:11;4.00;99.90
24152;DHT22;12311;50.866;4.332;2024-02-28T02:16:36;4.00;99.90
24152;DHT22;12311;50.866;4.332;2024-02-28T02:19:03;4.10;99.90
24152;DHT22;12311;50.866;4.332;2024-02-28T02:21:37;4.10;99.90
24152;DHT22;12311;50.866;4.332;2024-02-28T02:24:05;4.10;99.90
24152;DHT22;12311;50.866;4.332;2024-02-28T02:26:31;4.10;99.90
24152;DHT22;12311;50.866;4.332;2024-02-28T02:28:57;4.10;99.90
24152;DHT22;12311;50.866;4.332;2024-02-28T02:31:23;4.00;99.90
24152;DHT22;12311;50.866;4.332;2024-02-28T02:33:48;4.00;99.90
24152;DHT22;12311;50.866;4.332;2024-02-28T02:36:14;3.90;99.90
24152;DHT22;12311;50.866;4.332;2024-02-28T02:38:40;4.00;99.90
24152;DHT22;12311;50.866;4.332;2024-02-28T02:41:05;3.90;99.90
24152;DHT22;12311;50.866;4.332;2024-02-28T02:43:31;3.90;99.90
24152;DHT22;12311;50.866;4.332;2024-02-28T02:45:57;3.90;99.90
24152;DHT22;12311;50.866;4.332;2024-02-28T02:48:22;3.80;99.90
24152;DHT22;12311;50.866;4.332;2024-02-28T02:50:48;3.80;99.90
24152;DHT22;12311;50.866;4.332;2024-02-28T02:53:13;3.80;99.90
24152;DHT22;12311;50.866;4.332;2024-02-28T02:55:39;3.80;99.90
24152;DHT22;12311;50.866;4.332;2024-02-28T02:58:05;3.80;99.90
24152;DHT22;12311;50.866;4.332;2024-02-28T03:00:30;3.80;99.90
24152;DHT22;12311;50.866;4.332;2024-02-28T03:02:56;3.80;99.90
24152;DHT22;12311;50.866;4.332;2024-02-28T03:05:22;3.80;99.90
24152;DHT22;12311;50.866;4.332;2024-02-28T03:07:47;3.80;99.90
24152;DHT22;12311;50.866;4.332;2024-02-28T03:10:13;3.70;99.90
24152;DHT22;12311;50.866;4.332;2024-02-28T03:12:39;3.70;99.90
24152;DHT22;12311;50.866;4.332;2024-02-28T03:15:05;3.60;99.90
24152;DHT22;12311;50.866;4.332;2024-02-28T03:17:31;3.60;99.90
24152;DHT22;12311;50.866;4.332;2024-02-28T03:19:56;3.60;99.90
24152;DHT22;12311;50.866;4.332;2024-02-28T03:22:22;3.60;99.90
24152;DHT22;12311;50.866;4.332;2024-02-28T03:24:48;3.50;99.90
24152;DHT22;12311;50.866;4.332;2024-02-28T03:27:14;3.50;99.90
24152;DHT22;12311;50.866;4.332;2024-02-28T03:29:40;3.50;99.90
24152;DHT22;12311;50.866;4.332;2024-02-28T03:32:06;3.50;99.90
24152;DHT22;12311;50.866;4.332;2024-02-28T03:34:31;3.50;99.90
24152;DHT22;12311;50.866;4.332;2024-02-28T03:36:57;3.50;99.90
24152;DHT22;12311;50.866;4.332;2024-02-28T03:39:23;3.50;99.90
24152;DHT22;12311;50.866;4.332;2024-02-28T03:41:48;3.50;99.90
24152;DHT22;12311;50.866;4.332;2024-02-28T03:44:14;3.50;99.90
24152;DHT22;12311;50.866;4.332;2024-02-28T03:46:40;3.50;99.90
24152;DHT22;12311;50.866;4.332;2024-02-28T03:49:05;3.40;99.90
24152;DHT22;12311;50.866;4.332;2024-02-28T03:51:31;3.40;99.90
24152;DHT22;12311;50.866;4.332;2024-02-28T03:53:57;3.40;99.90
24152;DHT22;12311;50.866;4.332;2024-02-28T03:56:26;3.40;99.90
24152;DHT22;12311;50.866;4.332;2024-02-28T03:58:52;3.40;99.90
24152;DHT22;12311;50.866;4.332;2024-02-28T04:01:18;3.50;99.90
24152;DHT22;12311;50.866;4.332;2024-02-28T04:03:44;3.40;99.90
24152;DHT22;12311;50.866;4.332;2024-02-28T04:06:10;3.40;99.90
24152;DHT22;12311;50.866;4.332;2024-02-28T04:08:36;3.30;99.90
24152;DHT22;12311;50.866;4.332;2024-02-28T04:11:02;3.30;99.90
24152;DHT22;12311;50.866;4.332;2024-02-28T04:13:28;3.30;99.90
24152;DHT22;12311;50.866;4.332;2024-02-28T04:15:54;3.30;99.90
24152;DHT22;12311;50.866;4.332;2024-02-28T04:18:19;3.30;99.90
24152;DHT22;12311;50.866;4.332;2024-02-28T04:20:45;3.30;99.90
24152;DHT22;12311;50.866;4.332;2024-02-28T04:23:11;3.30;99.90
24152;DHT22;12311;50.866;4.332;2024-02-28T04:25:36;3.30;99.90
24152;DHT22;12311;50.866;4.332;2024-02-28T04:28:08;3.30;99.90
24152;DHT22;12311;50.866;4.332;2024-02-28T04:30:34;3.30;99.90
24152;DHT22;12311;50.866;4.332;2024-02-28T04:33:00;3.30;99.90
24152;DHT22;12311;50.866;4.332;2024-02-28T04:35:26;3.30;99.90
24152;DHT22;12311;50.866;4.332;2024-02-28T04:37:51;3.30;99.90
24152;DHT22;12311;50.866;4.332;2024-02-28T04:40:17;3.30;99.90
24152;DHT22;12311;50.866;4.332;2024-02-28T04:42:43;3.30;99.90
24152;DHT22;12311;50.866;4.332;2024-02-28T04:45:09;3.30;99.90
24152;DHT22;12311;50.866;4.332;2024-02-28T04:47:35;3.20;99.90
24152;DHT22;12311;50.866;4.332;2024-02-28T04:50:01;3.20;99.90
24152;DHT22;12311;50.866;4.332;2024-02-28T04:52:27;3.20;99.90
24152;DHT22;12311;50.866;4.332;2024-02-28T04:54:52;3.30;99.90
24152;DHT22;12311;50.866;4.332;2024-02-28T04:57:19;3.30;99.90
24152;DHT22;12311;50.866;4.332;2024-02-28T04:59:44;3.30;99.90
24152;DHT22;12311;50.866;4.332;2024-02-28T05:02:10;3.20;99.90
24152;DHT22;12311;50.866;4.332;2024-02-28T05:04:36;3.30;99.90
24152;DHT22;12311;50.866;4.332;2024-02-28T05:07:02;3.20;99.90
24152;DHT22;12311;50.866;4.332;2024-02-28T05:09:28;3.30;99.90
24152;DHT22;12311;50.866;4.332;2024-02-28T05:11:53;3.30;99.90
24152;DHT22;12311;50.866;4.332;2024-02-28T05:14:19;3.30;99.90
24152;DHT22;12311;50.866;4.332;2024-02-28T05:16:47;3.30;99.90
24152;DHT22;12311;50.866;4.332;2024-02-28T05:19:13;3.40;99.90
24152;DHT22;12311;50.866;4.332;2024-02-28T05:21:42;3.40;99.90
24152;DHT22;12311;50.866;4.332;2024-02-28T05:24:08;3.50;99.90
24152;DHT22;12311;50.866;4.332;2024-02-28T05:26:37;3.50;99.90
24152;DHT22;12311;50.866;4.332;2024-02-28T05:29:04;3.50;99.90
24152;DHT22;12311;50.866;4.332;2024-02-28T05:31:30;3.60;99.90
24152;DHT22;12311;50.866;4.332;2024-02-28T05:34:00;3.50;99.90
24152;DHT22;12311;50.866;4.332;2024-02-28T05:36:27;3.60;99.90
24152;DHT22;12311;50.866;4.332;2024-02-28T05:38:54;3.60;99.90
24152;DHT22;12311;50.866;4.332;2024-02-28T05:41:20;3.60;99.90
24152;DHT22;12311;50.866;4.332;2024-02-28T05:43:47;3.60;99.90
24152;DHT22;12311;50.866;4.332;2024-02-28T05:46:14;3.70;99.90
24152;DHT22;12311;50.866;4.332;2024-02-28T05:48:45;3.60;99.90
24152;DHT22;12311;50.866;4.332;2024-02-28T05:51:12;3.60;99.90
24152;DHT22;12311;50.866;4.332;2024-02-28T05:53:39;3.60;99.90
24152;DHT22;12311;50.866;4.332;2024-02-28T05:56:06;3.60;99.90
24152;DHT22;12311;50.866;4.332;2024-02-28T05:58:39;3.60;99.90
24152;DHT22;12311;50.866;4.332;2024-02-28T06:01:04;3.70;99.90
24152;DHT22;12311;50.866;4.332;2024-02-28T06:03:30;3.70;99.90
24152;DHT22;12311;50.866;4.332;2024-02-28T06:05:56;3.80;99.90
24152;DHT22;12311;50.866;4.332;2024-02-28T06:08:23;3.80;99.90
24152;DHT22;12311;50.866;4.332;2024-02-28T06:10:49;3.80;99.90
24152;DHT22;12311;50.866;4.332;2024-02-28T06:13:14;3.90;99.90
24152;DHT22;12311;50.866;4.332;2024-02-28T06:15:40;3.90;99.90
24152;DHT22;12311;50.866;4.332;2024-02-28T06:18:05;4.00;99.90
24152;DHT22;12311;50.866;4.332;2024-02-28T06:20:31;4.10;99.90
24152;DHT22;12311;50.866;4.332;2024-02-28T06:22:57;4.10;99.90
24152;DHT22;12311;50.866;4.332;2024-02-28T06:25:23;4.20;99.90
24152;DHT22;12311;50.866;4.332;2024-02-28T06:27:49;4.20;99.90
24152;DHT22;12311;50.866;4.332;2024-02-28T06:30:16;4.30;99.90
24152;DHT22;12311;50.866;4.332;2024-02-28T06:32:45;4.30;99.90
24152;DHT22;12311;50.866;4.332;2024-02-28T06:35:10;4.30;99.90
24152;DHT22;12311;50.866;4.332;2024-02-28T06:37:36;4.40;99.90
24152;DHT22;12311;50.866;4.332;2024-02-28T06:40:04;4.50;99.90
24152;DHT22;12311;50.866;4.332;2024-02-28T06:42:30;4.50;99.90
24152;DHT22;12311;50.866;4.332;2024-02-28T06:44:56;4.60;99.90
24152;DHT22;12311;50.866;4.332;2024-02-28T06:47:22;4.70;99.90
24152;DHT22;12311;50.866;4.332;2024-02-28T06:49:47;4.80;99.90
24152;DHT22;12311;50.866;4.332;2024-02-28T06:52:14;4.90;99.90
24152;DHT22;12311;50.866;4.332;2024-02-28T06:54:40;4.90;99.90
24152;DHT22;12311;50.866;4.332;2024-02-28T06:57:05;4.90;99.90
24152;DHT22;12311;50.866;4.332;2024-02-28T06:59:31;4.90;99.90
24152;DHT22;12311;50.866;4.332;2024-02-28T07:01:57;5.00;99.90
24152;DHT22;12311;50.866;4.332;2024-02-28T07:04:22;5.10;99.90
24152;DHT22;12311;50.866;4.332;2024-02-28T07:06:48;5.10;99.90
24152;DHT22;12311;50.866;4.332;2024-02-28T07:09:14;5.10;99.90
24152;DHT22;12311;50.866;4.332;2024-02-28T07:11:40;5.10;99.90
24152;DHT22;12311;50.866;4.332;2024-02-28T07:14:06;5.20;99.90
24152;DHT22;12311;50.866;4.332;2024-02-28T07:16:32;5.20;99.90
24152;DHT22;12311;50.866;4.332;2024-02-28T07:19:02;5.30;99.90
24152;DHT22;12311;50.866;4.332;2024-02-28T07:21:28;5.40;99.90
24152;DHT22;12311;50.866;4.332;2024-02-28T07:23:55;5.50;99.90
24152;DHT22;12311;50.866;4.332;2024-02-28T07:26:21;5.70;99.90
24152;DHT22;12311;50.866;4.332;2024-02-28T07:28:47;5.80;99.90
24152;DHT22;12311;50.866;4.332;2024-02-28T07:31:19;5.90;99.90
24152;DHT22;12311;50.866;4.332;2024-02-28T07:33:45;5.90;99.90
24152;DHT22;12311;50.866;4.332;2024-02-28T07:36:11;5.90;99.90
24152;DHT22;12311;50.866;4.332;2024-02-28T07:38:37;5.90;99.90
24152;DHT22;12311;50.866;4.332;2024-02-28T07:41:03;6.00;99.90
24152;DHT22;12311;50.866;4.332;2024-02-28T07:43:28;6.00;99.90
24152;DHT22;12311;50.866;4.332;2024-02-28T07:45:58;6.10;99.90
24152;DHT22;12311;50.866;4.332;2024-02-28T07:48:24;6.10;99.90
24152;DHT22;12311;50.866;4.332;2024-02-28T07:50:49;6.30;99.90
24152;DHT22;12311;50.866;4.332;2024-02-28T07:53:16;6.30;99.90
24152;DHT22;12311;50.866;4.332;2024-02-28T07:55:42;6.40;99.90
24152;DHT22;12311;50.866;4.332;2024-02-28T07:58:08;6.40;99.90
24152;DHT22;12311;50.866;4.332;2024-02-28T08:00:35;6.50;99.90
24152;DHT22;12311;50.866;4.332;2024-02-28T08:03:01;6.50;99.90
24152;DHT22;12311;50.866;4.332;2024-02-28T08:05:27;6.60;99.90
24152;DHT22;12311;50.866;4.332;2024-02-28T08:07:52;6.60;99.90
24152;DHT22;12311;50.866;4.332;2024-02-28T08:10:18;6.70;99.90
24152;DHT22;12311;50.866;4.332;2024-02-28T08:12:43;6.80;99.90
24152;DHT22;12311;50.866;4.332;2024-02-28T08:15:10;6.90;99.90
24152;DHT22;12311;50.866;4.332;2024-02-28T08:17:35;7.00;99.90
24152;DHT22;12311;50.866;4.332;2024-02-28T08:20:03;7.10;99.90
24152;DHT22;12311;50.866;4.332;2024-02-28T08:22:30;7.00;99.90
24152;DHT22;12311;50.866;4.332;2024-02-28T08:24:56;7.00;99.90
24152;DHT22;12311;50.866;4.332;2024-02-28T08:27:22;7.10;99.90
24152;DHT22;12311;50.866;4.332;2024-02-28T08:29:49;7.30;99.90
24152;DHT22;12311;50.866;4.332;2024-02-28T08:32:15;7.30;99.90
24152;DHT22;12311;50.866;4.332;2024-02-28T08:34:44;7.30;99.90
24152;DHT22;12311;50.866;4.332;2024-02-28T08:37:10;7.20;99.90
24152;DHT22;12311;50.866;4.332;2024-02-28T08:39:36;7.10;99.90
24152;DHT22;12311;50.866;4.332;2024-02-28T08:42:02;7.10;99.90
24152;DHT22;12311;50.866;4.332;2024-02-28T08:44:27;7.20;99.90
24152;DHT22;12311;50.866;4.332;2024-02-28T08:46:53;7.20;99.90
24152;DHT22;12311;50.866;4.332;2024-02-28T08:49:18;7.10;99.90
24152;DHT22;12311;50.866;4.332;2024-02-28T08:51:44;7.20;99.90
24152;DHT22;12311;50.866;4.332;2024-02-28T08:54:10;7.10;99.90
24152;DHT22;12311;50.866;4.332;2024-02-28T08:56:35;7.10;99.90
24152;DHT22;12311;50.866;4.332;2024-02-28T08:59:01;7.10;99.90
24152;DHT22;12311;50.866;4.332;2024-02-28T09:01:27;7.10;99.90
24152;DHT22;12311;50.866;4.332;2024-02-28T09:03:52;7.10;99.90
24152;DHT22;12311;50.866;4.332;2024-02-28T09:06:18;7.00;99.90
24152;DHT22;12311;50.866;4.332;2024-02-28T09:08:43;7.10;99.90
24152;DHT22;12311;50.866;4.332;2024-02-28T09:11:09;7.10;99.90
24152;DHT22;12311;50.866;4.332;2024-02-28T09:13:35;7.10;99.90
24152;DHT22;12311;50.866;4.332;2024-02-28T09:16:04;7.00;99.90
24152;DHT22;12311;50.866;4.332;2024-02-28T09:18:30;7.00;99.90
24152;DHT22;12311;50.866;4.332;2024-02-28T09:20:56;7.00;99.90
24152;DHT22;12311;50.866;4.332;2024-02-28T09:23:21;7.10;99.90
24152;DHT22;12311;50.866;4.332;2024-02-28T09:25:47;7.30;99.90
24152;DHT22;12311;50.866;4.332;2024-02-28T09:28:13;7.40;99.90
24152;DHT22;12311;50.866;4.332;2024-02-28T09:30:41;7.30;99.90
24152;DHT22;12311;50.866;4.332;2024-02-28T09:33:07;7.40;99.90
24152;DHT22;12311;50.866;4.332;2024-02-28T09:35:35;7.60;99.90
24152;DHT22;12311;50.866;4.332;2024-02-28T09:38:02;7.70;99.90
24152;DHT22;12311;50.866;4.332;2024-02-28T09:40:27;7.90;99.90
24152;DHT22;12311;50.866;4.332;2024-02-28T09:43:00;8.00;99.90
24152;DHT22;12311;50.866;4.332;2024-02-28T09:45:27;7.90;99.90
24152;DHT22;12311;50.866;4.332;2024-02-28T09:47:59;7.60;99.90
24152;DHT22;12311;50.866;4.332;2024-02-28T09:50:26;7.40;99.90
24152;DHT22;12311;50.866;4.332;2024-02-28T09:52:53;7.50;99.90
24152;DHT22;12311;50.866;4.332;2024-02-28T09:55:19;7.40;99.90
24152;DHT22;12311;50.866;4.332;2024-02-28T09:57:48;7.50;99.90
24152;DHT22;12311;50.866;4.332;2024-02-28T10:00:18;7.60;99.90
24152;DHT22;12311;50.866;4.332;2024-02-28T10:02:46;7.70;99.90
24152;DHT22;12311;50.866;4.332;2024-02-28T10:05:13;7.90;99.90
24152;DHT22;12311;50.866;4.332;2024-02-28T10:07:39;7.90;99.90
24152;DHT22;12311;50.866;4.332;2024-02-28T10:10:06;8.00;99.90
24152;DHT22;12311;50.866;4.332;2024-02-28T10:12:33;8.20;99.90
24152;DHT22;12311;50.866;4.332;2024-02-28T10:15:00;8.10;99.90
24152;DHT22;12311;50.866;4.332;2024-02-28T10:17:26;8.00;99.90
24152;DHT22;12311;50.866;4.332;2024-02-28T10:19:52;8.10;99.90
24152;DHT22;12311;50.866;4.332;2024-02-28T10:22:18;8.20;99.90
24152;DHT22;12311;50.866;4.332;2024-02-28T10:24:44;8.30;99.90
24152;DHT22;12311;50.866;4.332;2024-02-28T10:27:10;8.30;99.90
24152;DHT22;12311;50.866;4.332;2024-02-28T10:29:36;8.20;99.90
24152;DHT22;12311;50.866;4.332;2024-02-28T10:32:02;8.20;99.90
24152;DHT22;12311;50.866;4.332;2024-02-28T10:34:31;8.30;99.90
24152;DHT22;12311;50.866;4.332;2024-02-28T10:36:59;8.30;99.90
24152;DHT22;12311;50.866;4.332;2024-02-28T10:39:26;8.60;99.90
24152;DHT22;12311;50.866;4.332;2024-02-28T10:41:52;9.00;99.90
24152;DHT22;12311;50.866;4.332;2024-02-28T10:44:20;8.90;99.90
24152;DHT22;12311;50.866;4.332;2024-02-28T10:46:49;9.00;99.90
24152;DHT22;12311;50.866;4.332;2024-02-28T10:49:15;9.10;99.90
24152;DHT22;12311;50.866;4.332;2024-02-28T10:51:45;9.30;99.90
24152;DHT22;12311;50.866;4.332;2024-02-28T10:54:12;9.40;99.90
24152;DHT22;12311;50.866;4.332;2024-02-28T10:56:40;9.60;99.90
24152;DHT22;12311;50.866;4.332;2024-02-28T10:59:10;9.50;99.90
24152;DHT22;12311;50.866;4.332;2024-02-28T11:01:39;9.10;99.90
24152;DHT22;12311;50.866;4.332;2024-02-28T11:04:07;9.10;99.90
24152;DHT22;12311;50.866;4.332;2024-02-28T11:06:33;9.00;99.90
24152;DHT22;12311;50.866;4.332;2024-02-28T11:09:03;9.00;99.90
24152;DHT22;12311;50.866;4.332;2024-02-28T11:11:32;9.10;99.90
24152;DHT22;12311;50.866;4.332;2024-02-28T11:13:59;9.30;99.90
24152;DHT22;12311;50.866;4.332;2024-02-28T11:16:28;9.60;99.90
24152;DHT22;12311;50.866;4.332;2024-02-28T11:18:54;9.60;99.90
24152;DHT22;12311;50.866;4.332;2024-02-28T11:21:23;9.50;99.90
24152;DHT22;12311;50.866;4.332;2024-02-28T11:23:50;9.50;99.90
24152;DHT22;12311;50.866;4.332;2024-02-28T11:26:16;9.90;99.90
24152;DHT22;12311;50.866;4.332;2024-02-28T11:28:41;9.80;99.90
24152;DHT22;12311;50.866;4.332;2024-02-28T11:31:07;9.80;99.90
24152;DHT22;12311;50.866;4.332;2024-02-28T11:33:33;9.60;99.90
24152;DHT22;12311;50.866;4.332;2024-02-28T11:35:59;9.70;99.90
24152;DHT22;12311;50.866;4.332;2024-02-28T11:38:28;9.90;99.90
24152;DHT22;12311;50.866;4.332;2024-02-28T11:40:54;9.70;99.90
24152;DHT22;12311;50.866;4.332;2024-02-28T11:43:21;9.50;99.90
24152;DHT22;12311;50.866;4.332;2024-02-28T11:45:47;9.50;99.90
24152;DHT22;12311;50.866;4.332;2024-02-28T11:48:14;9.60;99.90
24152;DHT22;12311;50.866;4.332;2024-02-28T11:50:39;9.70;99.90
24152;DHT22;12311;50.866;4.332;2024-02-28T11:53:08;9.90;99.90
24152;DHT22;12311;50.866;4.332;2024-02-28T11:55:34;10.20;99.90
24152;DHT22;12311;50.866;4.332;2024-02-28T11:58:00;10.10;99.90
24152;DHT22;12311;50.866;4.332;2024-02-28T12:00:26;10.40;99.90
24152;DHT22;12311;50.866;4.332;2024-02-28T12:02:52;10.60;99.90
24152;DHT22;12311;50.866;4.332;2024-02-28T12:05:22;10.80;99.90
24152;DHT22;12311;50.866;4.332;2024-02-28T12:07:47;10.90;99.90
24152;DHT22;12311;50.866;4.332;2024-02-28T12:10:13;11.00;99.90
24152;DHT22;12311;50.866;4.332;2024-02-28T12:12:40;10.90;99.90
24152;DHT22;12311;50.866;4.332;2024-02-28T12:15:06;11.00;99.90
24152;DHT22;12311;50.866;4.332;2024-02-28T12:17:32;11.00;99.90
24152;DHT22;12311;50.866;4.332;2024-02-28T12:20:01;10.90;99.90
24152;DHT22;12311;50.866;4.332;2024-02-28T12:22:27;11.00;99.90
24152;DHT22;12311;50.866;4.332;2024-02-28T12:24:53;11.10;99.90
24152;DHT22;12311;50.866;4.332;2024-02-28T12:27:19;11.20;99.90
24152;DHT22;12311;50.866;4.332;2024-02-28T12:29:45;11.40;99.90
24152;DHT22;12311;50.866;4.332;2024-02-28T12:32:10;11.30;99.90
24152;DHT22;12311;50.866;4.332;2024-02-28T12:34:37;11.40;99.90
24152;DHT22;12311;50.866;4.332;2024-02-28T12:37:03;11.40;99.90
24152;DHT22;12311;50.866;4.332;2024-02-28T12:39:30;11.40;99.90
24152;DHT22;12311;50.866;4.332;2024-02-28T12:41:57;11.40;99.90
24152;DHT22;12311;50.866;4.332;2024-02-28T12:44:23;11.20;99.90
24152;DHT22;12311;50.866;4.332;2024-02-28T12:46:48;11.30;99.90
24152;DHT22;12311;50.866;4.332;2024-02-28T12:49:14;11.30;99.90
24152;DHT22;12311;50.866;4.332;2024-02-28T12:51:41;11.20;99.90
24152;DHT22;12311;50.866;4.332;2024-02-28T12:54:08;11.00;99.90
24152;DHT22;12311;50.866;4.332;2024-02-28T12:56:38;11.10;99.90
24152;DHT22;12311;50.866;4.332;2024-02-28T12:59:06;11.00;99.90
24152;DHT22;12311;50.866;4.332;2024-02-28T13:01:32;10.80;99.90
24152;DHT22;12311;50.866;4.332;2024-02-28T13:03:58;10.80;99.90
24152;DHT22;12311;50.866;4.332;2024-02-28T13:06:24;10.80;99.90
24152;DHT22;12311;50.866;4.332;2024-02-28T13:08:50;10.60;99.90
24152;DHT22;12311;50.866;4.332;2024-02-28T13:11:21;10.50;99.90
24152;DHT22;12311;50.866;4.332;2024-02-28T13:13:51;10.60;99.90
24152;DHT22;12311;50.866;4.332;2024-02-28T13:16:20;10.50;99.90
24152;DHT22;12311;50.866;4.332;2024-02-28T13:18:47;10.30;99.90
24152;DHT22;12311;50.866;4.332;2024-02-28T13:21:13;10.50;99.90
24152;DHT22;12311;50.866;4.332;2024-02-28T13:23:39;10.50;99.90
24152;DHT22;12311;50.866;4.332;2024-02-28T13:26:05;10.40;99.90
24152;DHT22;12311;50.866;4.332;2024-02-28T13:28:31;10.70;99.90
24152;DHT22;12311;50.866;4.332;2024-02-28T13:30:58;10.90;99.90
24152;DHT22;12311;50.866;4.332;2024-02-28T13:33:24;11.00;99.90
24152;DHT22;12311;50.866;4.332;2024-02-28T13:35:50;11.20;99.90
24152;DHT22;12311;50.866;4.332;2024-02-28T13:38:16;10.90;99.90
24152;DHT22;12311;50.866;4.332;2024-02-28T13:40:42;10.40;99.90
24152;DHT22;12311;50.866;4.332;2024-02-28T13:43:10;10.50;99.90
24152;DHT22;12311;50.866;4.332;2024-02-28T13:45:37;10.50;99.90
24152;DHT22;12311;50.866;4.332;2024-02-28T13:48:03;10.60;99.90
24152;DHT22;12311;50.866;4.332;2024-02-28T13:50:30;10.40;99.90
24152;DHT22;12311;50.866;4.332;2024-02-28T13:52:58;10.40;99.90
24152;DHT22;12311;50.866;4.332;2024-02-28T13:55:23;10.50;99.90
24152;DHT22;12311;50.866;4.332;2024-02-28T13:57:49;10.70;99.90
24152;DHT22;12311;50.866;4.332;2024-02-28T14:00:15;10.90;99.90
24152;DHT22;12311;50.866;4.332;2024-02-28T14:02:41;11.10;99.90
24152;DHT22;12311;50.866;4.332;2024-02-28T14:05:06;11.30;99.90
24152;DHT22;12311;50.866;4.332;2024-02-28T14:07:35;11.30;99.90
24152;DHT22;12311;50.866;4.332;2024-02-28T14:10:03;10.90;99.90
24152;DHT22;12311;50.866;4.332;2024-02-28T14:12:29;10.90;99.90
24152;DHT22;12311;50.866;4.332;2024-02-28T14:14:55;10.80;99.90
24152;DHT22;12311;50.866;4.332;2024-02-28T14:17:20;10.70;99.90
24152;DHT22;12311;50.866;4.332;2024-02-28T14:19:46;10.80;99.90
24152;DHT22;12311;50.866;4.332;2024-02-28T14:22:13;10.60;99.90
24152;DHT22;12311;50.866;4.332;2024-02-28T14:24:39;10.40;99.90
24152;DHT22;12311;50.866;4.332;2024-02-28T14:27:05;10.40;99.90
24152;DHT22;12311;50.866;4.332;2024-02-28T14:29:31;10.50;99.90
24152;DHT22;12311;50.866;4.332;2024-02-28T14:31:57;10.50;99.90
24152;DHT22;12311;50.866;4.332;2024-02-28T14:34:23;10.40;99.90
24152;DHT22;12311;50.866;4.332;2024-02-28T14:36:49;10.60;99.90
24152;DHT22;12311;50.866;4.332;2024-02-28T14:39:15;10.60;99.90
24152;DHT22;12311;50.866;4.332;2024-02-28T14:41:44;10.50;99.90
24152;DHT22;12311;50.866;4.332;2024-02-28T14:44:10;10.40;99.90
24152;DHT22;12311;50.866;4.332;2024-02-28T14:46:36;10.50;99.90
24152;DHT22;12311;50.866;4.332;2024-02-28T14:49:02;10.70;99.90
24152;DHT22;12311;50.866;4.332;2024-02-28T14:51:28;10.90;99.90
24152;DHT22;12311;50.866;4.332;2024-02-28T14:53:55;11.00;99.90
24152;DHT22;12311;50.866;4.332;2024-02-28T14:56:21;10.70;99.90
24152;DHT22;12311;50.866;4.332;2024-02-28T14:58:47;10.60;99.90
24152;DHT22;12311;50.866;4.332;2024-02-28T15:01:13;10.50;99.90
24152;DHT22;12311;50.866;4.332;2024-02-28T15:03:39;10.40;99.90
24152;DHT22;12311;50.866;4.332;2024-02-28T15:06:06;10.50;99.90
24152;DHT22;12311;50.866;4.332;2024-02-28T15:08:31;10.60;99.90
24152;DHT22;12311;50.866;4.332;2024-02-28T15:10:57;10.70;99.90
24152;DHT22;12311;50.866;4.332;2024-02-28T15:13:23;10.90;99.90
24152;DHT22;12311;50.866;4.332;2024-02-28T15:15:49;10.80;99.90
24152;DHT22;12311;50.866;4.332;2024-02-28T15:18:15;10.80;99.90
24152;DHT22;12311;50.866;4.332;2024-02-28T15:20:41;10.70;99.90
24152;DHT22;12311;50.866;4.332;2024-02-28T15:23:07;10.60;99.90
24152;DHT22;12311;50.866;4.332;2024-02-28T15:25:32;10.60;99.90
24152;DHT22;12311;50.866;4.332;2024-02-28T15:27:58;10.60;99.90
24152;DHT22;12311;50.866;4.332;2024-02-28T15:30:24;10.60;99.90
24152;DHT22;12311;50.866;4.332;2024-02-28T15:32:50;10.50;99.90
24152;DHT22;12311;50.866;4.332;2024-02-28T15:35:15;10.70;99.90